»·PEaware :: N114HT KSFO-KMRY

N114HT :: KSFO-KMRY

FLIGHT INFORMATION

Flight Status: Arrived
Operator: Privately registered:
United States
More flights under this callsign
Pilot: Heigo T. (17565)
Aircraft: CESSNA 182 SKYLANE
(C182)
More flights by this aircraft type
Origin: KSFO San Francisco Intl
United States
Destination: KMRY Monterey Peninsula
United States
More flights between these airports :: More routes between these airports
Route: +DCT
File this flight plan on PilotEdge
Remarks:
Altitude:
(Current/Filed)
6,500ft
Speed:
(Current/Filed)
110kts
Departed: 29-Dec-17 12:29 PM
Arrived: 29-Dec-17 02:43 PM
Distance/Time
Traveled:
67nm/2:14
Distance/Time
To Go:
Arrived

Flight Plot

Page will automatically refresh every two minutes.

Flight plan parsing failed; only flown route is shown


Map Options




Map Legend


Flown Route
Filed Route
Departure Airport
Arrival Airport
Navaid (VOR, NDB)
Fix

Horizontal Profiles

Position Reports

Time Latitude Longitude Heading Altitude Ground
Speed
29-Dec-17 12:21 37.627944 -122.383745 300 15ft 0kts
29-Dec-17 12:22 37.627946 -122.383749 300 15ft 0kts
29-Dec-17 12:23 37.627948 -122.383752 300 15ft 0kts
29-Dec-17 12:24 37.627714 -122.384252 203 15ft 6kts
29-Dec-17 12:25 37.627172 -122.384470 200 15ft 0kts
29-Dec-17 12:26 37.627169 -122.384471 200 15ft 0kts
29-Dec-17 12:27 37.626780 -122.384627 182 15ft 7kts
29-Dec-17 12:28 37.624954 -122.380605 118 15ft 11kts
29-Dec-17 12:29 37.623147 -122.376341 119 15ft 9kts
29-Dec-17 12:30 37.622391 -122.375430 231 15ft 0kts
29-Dec-17 12:31 37.622386 -122.375437 231 15ft 0kts
29-Dec-17 12:32 37.622382 -122.375445 231 15ft 0kts
29-Dec-17 12:33 37.622378 -122.375450 231 15ft 0kts
29-Dec-17 12:34 37.621656 -122.376663 279 15ft 3kts
29-Dec-17 12:35 37.623243 -122.380213 297 16ft 63kts
29-Dec-17 12:36 37.635322 -122.403075 338 852ft 95kts
29-Dec-17 12:37 37.664949 -122.393874 24 1273ft 121kts
29-Dec-17 12:38 37.699041 -122.392977 352 1380ft 126kts
29-Dec-17 12:39 37.732324 -122.399347 352 1577ft 112kts
29-Dec-17 12:40 37.755304 -122.410410 300 1999ft 112kts
29-Dec-17 12:41 37.773295 -122.451451 318 2508ft 117kts
29-Dec-17 12:42 37.796790 -122.459555 352 2741ft 121kts
29-Dec-17 12:43 37.838403 -122.469176 355 2754ft 134kts
29-Dec-17 12:44 37.857428 -122.438154 72 3031ft 115kts
29-Dec-17 12:45 37.865756 -122.406206 72 3343ft 113kts
29-Dec-17 12:46 37.885810 -122.368280 51 3847ft 113kts
29-Dec-17 12:47 37.902713 -122.342207 51 4186ft 116kts
29-Dec-17 12:48 37.923397 -122.310009 51 4595ft 120kts
29-Dec-17 12:49 37.948335 -122.270407 51 5071ft 124kts
29-Dec-17 12:50 37.966320 -122.241453 51 5400ft 126kts
29-Dec-17 12:51 37.985115 -122.204217 86 5758ft 130kts
29-Dec-17 12:52 37.997260 -122.156916 71 5738ft 147kts
29-Dec-17 12:53 38.025188 -122.119779 31 5568ft 156kts
29-Dec-17 12:54 38.059817 -122.086597 39 5516ft 151kts
29-Dec-17 12:55 38.090623 -122.053228 39 5520ft 142kts
29-Dec-17 12:56 38.109083 -122.014728 116 5535ft 136kts
29-Dec-17 12:57 38.092716 -121.970804 114 5526ft 138kts
29-Dec-17 12:58 38.077911 -121.922331 112 5520ft 148kts
29-Dec-17 12:59 38.063699 -121.873925 112 5525ft 148kts
29-Dec-17 13:00 38.049417 -121.824998 112 5517ft 144kts
29-Dec-17 13:01 38.035005 -121.775695 112 5523ft 148kts
29-Dec-17 13:02 38.020559 -121.726336 112 5523ft 148kts
29-Dec-17 13:03 38.006666 -121.678925 112 5516ft 139kts
29-Dec-17 13:04 37.993234 -121.633196 112 5522ft 138kts
29-Dec-17 13:05 37.979776 -121.587460 112 5523ft 138kts
29-Dec-17 13:06 37.965800 -121.540056 112 5527ft 144kts
29-Dec-17 13:07 37.952130 -121.493731 112 5520ft 138kts
29-Dec-17 13:08 37.938845 -121.448161 104 5525ft 138kts
29-Dec-17 13:09 37.936359 -121.399831 94 5536ft 138kts
29-Dec-17 13:10 37.933931 -121.348653 94 5527ft 146kts
29-Dec-17 13:11 37.931350 -121.295785 94 5528ft 147kts
29-Dec-17 13:12 37.928875 -121.245986 94 5527ft 138kts
29-Dec-17 13:13 37.926450 -121.197765 94 5534ft 136kts
29-Dec-17 13:14 37.923933 -121.149704 94 5532ft 136kts
29-Dec-17 13:15 37.921465 -121.101902 94 5538ft 136kts
29-Dec-17 13:16 37.918971 -121.053948 94 5532ft 136kts
29-Dec-17 13:17 37.916475 -121.006153 94 5532ft 135kts
29-Dec-17 13:18 37.913850 -120.958393 94 5507ft 135kts
29-Dec-17 13:19 37.911231 -120.910765 94 5512ft 135kts
29-Dec-17 13:20 37.908292 -120.860862 94 5513ft 143kts
29-Dec-17 13:21 37.905440 -120.812099 94 5507ft 135kts
29-Dec-17 13:22 37.902709 -120.764873 94 5514ft 133kts
29-Dec-17 13:23 37.899915 -120.716500 94 5519ft 139kts
29-Dec-17 13:24 37.897142 -120.668439 94 5514ft 134kts
29-Dec-17 13:25 37.894197 -120.621387 94 5517ft 134kts
29-Dec-17 13:26 37.891214 -120.574425 94 5519ft 133kts
29-Dec-17 13:27 37.888221 -120.527412 94 5520ft 133kts
29-Dec-17 13:28 37.885228 -120.480709 94 5521ft 133kts
29-Dec-17 13:29 37.879372 -120.433673 101 5523ft 135kts
29-Dec-17 13:30 37.856687 -120.395014 129 5527ft 138kts
29-Dec-17 13:31 37.832400 -120.358289 129 5523ft 136kts
29-Dec-17 13:32 37.807925 -120.321319 129 5524ft 136kts
29-Dec-17 13:33 37.783083 -120.283777 129 5522ft 139kts
29-Dec-17 13:34 37.757534 -120.245195 129 5523ft 142kts
29-Dec-17 13:35 37.731527 -120.206320 129 5610ft 140kts
29-Dec-17 13:36 37.706675 -120.169233 129 5978ft 135kts
29-Dec-17 13:37 37.683032 -120.134069 129 6371ft 128kts
29-Dec-17 13:38 37.659911 -120.099559 129 6775ft 130kts
29-Dec-17 13:39 37.639831 -120.062486 95 7182ft 129kts
29-Dec-17 13:40 37.636028 -120.016805 95 7627ft 131kts
29-Dec-17 13:41 37.637072 -119.971986 85 8001ft 126kts
29-Dec-17 13:42 37.639521 -119.926772 85 8403ft 129kts
29-Dec-17 13:43 37.642112 -119.881998 83 8787ft 127kts
29-Dec-17 13:44 37.647340 -119.838252 74 9186ft 125kts
29-Dec-17 13:45 37.656216 -119.795980 74 9496ft 126kts
29-Dec-17 13:46 37.671157 -119.749776 64 9533ft 152kts
29-Dec-17 13:47 37.689605 -119.699291 64 9432ft 156kts
29-Dec-17 13:48 37.708361 -119.648371 64 9321ft 155kts
29-Dec-17 13:49 37.726370 -119.600604 58 9182ft 147kts
29-Dec-17 13:50 37.748766 -119.557088 56 9096ft 146kts
29-Dec-17 13:51 37.775734 -119.523510 349 8982ft 142kts
29-Dec-17 13:52 37.778217 -119.563024 236 8917ft 141kts
29-Dec-17 13:53 37.751462 -119.601233 226 8838ft 145kts
29-Dec-17 13:54 37.723170 -119.638597 226 8737ft 146kts
29-Dec-17 13:55 37.695465 -119.675690 232 8472ft 150kts
29-Dec-17 13:56 37.673948 -119.720292 239 8571ft 137kts
29-Dec-17 13:57 37.652524 -119.764392 238 8509ft 150kts
29-Dec-17 13:58 37.631103 -119.807574 238 8509ft 142kts
29-Dec-17 13:59 37.610162 -119.849657 238 8546ft 141kts
29-Dec-17 14:00 37.587683 -119.894778 238 8531ft 152kts
29-Dec-17 14:01 37.565843 -119.938531 238 8523ft 143kts
29-Dec-17 14:02 37.544725 -119.980779 238 8528ft 142kts
29-Dec-17 14:03 37.523662 -120.022871 238 8524ft 142kts
29-Dec-17 14:04 37.501988 -120.066136 238 8519ft 145kts
29-Dec-17 14:05 37.480679 -120.108612 238 8516ft 142kts
29-Dec-17 14:06 37.458894 -120.151984 237 8518ft 146kts
29-Dec-17 14:07 37.436925 -120.195662 237 8509ft 146kts
29-Dec-17 14:08 37.415536 -120.238124 238 8514ft 142kts
29-Dec-17 14:09 37.393404 -120.282019 237 8509ft 147kts
29-Dec-17 14:10 37.371975 -120.324449 237 8506ft 142kts
29-Dec-17 14:11 37.350380 -120.367154 237 8517ft 145kts
29-Dec-17 14:12 37.327859 -120.411646 237 8505ft 149kts
29-Dec-17 14:13 37.306271 -120.454222 237 8497ft 141kts
29-Dec-17 14:14 37.285159 -120.495811 237 8502ft 140kts
29-Dec-17 14:15 37.264164 -120.537121 237 8503ft 140kts
29-Dec-17 14:16 37.243164 -120.578388 237 8497ft 141kts
29-Dec-17 14:17 37.220942 -120.622010 237 8485ft 147kts
29-Dec-17 14:18 37.199463 -120.664108 237 8476ft 140kts
29-Dec-17 14:19 37.178422 -120.705293 237 8480ft 139kts
29-Dec-17 14:20 37.157523 -120.746150 237 8481ft 139kts
29-Dec-17 14:21 37.136620 -120.786970 237 8481ft 139kts
29-Dec-17 14:22 37.115612 -120.827945 237 8488ft 141kts
29-Dec-17 14:23 37.093238 -120.871546 237 8474ft 148kts
29-Dec-17 14:24 37.071612 -120.913616 237 8468ft 141kts
29-Dec-17 14:25 37.050286 -120.955049 237 8469ft 141kts
29-Dec-17 14:26 37.029225 -120.995920 237 8470ft 138kts
29-Dec-17 14:27 37.020499 -121.042659 267 8260ft 150kts
29-Dec-17 14:28 37.019103 -121.097354 267 7765ft 158kts
29-Dec-17 14:29 37.016406 -121.151871 255 7257ft 156kts
29-Dec-17 14:30 37.005865 -121.204375 255 6761ft 155kts
29-Dec-17 14:31 36.991774 -121.256425 244 6260ft 157kts
29-Dec-17 14:32 36.973261 -121.305777 244 5744ft 154kts
29-Dec-17 14:33 36.955306 -121.353751 244 5232ft 152kts
29-Dec-17 14:34 36.936871 -121.403215 244 4755ft 156kts
29-Dec-17 14:35 36.916943 -121.455703 234 4248ft 168kts
29-Dec-17 14:36 36.882371 -121.495779 221 3740ft 167kts
29-Dec-17 14:37 36.847712 -121.535110 221 3224ft 166kts
29-Dec-17 14:38 36.813634 -121.574082 221 2720ft 164kts
29-Dec-17 14:39 36.781528 -121.610525 221 2682ft 151kts
29-Dec-17 14:40 36.750341 -121.645859 221 2606ft 155kts
29-Dec-17 14:41 36.717455 -121.683021 221 2484ft 155kts
29-Dec-17 14:42 36.685266 -121.716906 201 2342ft 149kts
29-Dec-17 14:43 36.647721 -121.733010 198 2025ft 113kts
29-Dec-17 14:44 36.618557 -121.745820 198 1780ft 120kts
29-Dec-17 14:45 36.591929 -121.763381 233 1654ft 104kts
29-Dec-17 14:46 36.579363 -121.795439 257 1213ft 88kts
29-Dec-17 14:47 36.580009 -121.821693 280 629ft 68kts
29-Dec-17 14:48 36.586254 -121.842269 288 208ft 44kts
29-Dec-17 14:49 36.587596 -121.847651 206 208ft 5kts
29-Dec-17 14:50 36.587841 -121.849373 291 208ft 7kts
29-Dec-17 14:51 36.589290 -121.853727 291 208ft 14kts
29-Dec-17 14:52 36.588821 -121.853877 21 208ft 0kts
29-Dec-17 14:53 36.588822 -121.853876 21 208ft 0kts
29-Dec-17 14:54 36.588822 -121.853876 21 208ft 0kts
29-Dec-17 14:55 36.588822 -121.853876 21 208ft 0kts
29-Dec-17 14:56 36.588822 -121.853876 21 208ft 0kts
29-Dec-17 14:57 36.588822 -121.853876 21 208ft 0kts
29-Dec-17 14:58 36.588822 -121.853876 21 208ft 0kts
29-Dec-17 14:59 36.588822 -121.853876 21 208ft 0kts
29-Dec-17 15:00 36.588822 -121.853876 21 208ft 0kts
29-Dec-17 15:01 36.588822 -121.853876 21 208ft 0kts
29-Dec-17 15:02 36.588822 -121.853876 21 208ft 0kts
29-Dec-17 15:03 36.588822 -121.853876 21 208ft 0kts

Navigation Log

Ident Type
Flight plan parsing failed, navigation log unavailable